sensor_id;sensor_type;location;lat;lon;timestamp;temperature;humidity
37910;DHT22;23741;49.446;8.754;2024-02-15T00:01:17;14.70;73.60
37910;DHT22;23741;49.446;8.754;2024-02-15T00:03:19;14.70;73.70
37910;DHT22;23741;49.446;8.754;2024-02-15T00:05:21;14.70;73.70
37910;DHT22;23741;49.446;8.754;2024-02-15T00:07:23;14.70;73.80
37910;DHT22;23741;49.446;8.754;2024-02-15T00:09:25;14.70;73.80
37910;DHT22;23741;49.446;8.754;2024-02-15T00:11:27;14.70;73.90
37910;DHT22;23741;49.446;8.754;2024-02-15T00:13:29;14.70;73.80
37910;DHT22;23741;49.446;8.754;2024-02-15T00:15:32;14.70;73.90
37910;DHT22;23741;49.446;8.754;2024-02-15T00:17:36;14.70;73.90
37910;DHT22;23741;49.446;8.754;2024-02-15T00:19:38;14.70;73.90
37910;DHT22;23741;49.446;8.754;2024-02-15T00:21:43;14.70;73.80
37910;DHT22;23741;49.446;8.754;2024-02-15T00:23:46;14.70;73.80
37910;DHT22;23741;49.446;8.754;2024-02-15T00:25:48;14.70;73.90
37910;DHT22;23741;49.446;8.754;2024-02-15T00:27:51;14.70;73.80
37910;DHT22;23741;49.446;8.754;2024-02-15T00:29:53;14.70;73.90
37910;DHT22;23741;49.446;8.754;2024-02-15T00:31:55;14.70;73.90
37910;DHT22;23741;49.446;8.754;2024-02-15T00:33:57;14.70;73.90
37910;DHT22;23741;49.446;8.754;2024-02-15T00:36:00;14.70;74.00
37910;DHT22;23741;49.446;8.754;2024-02-15T00:38:03;14.70;73.90
37910;DHT22;23741;49.446;8.754;2024-02-15T00:40:05;14.70;73.90
37910;DHT22;23741;49.446;8.754;2024-02-15T00:42:07;14.70;73.90
37910;DHT22;23741;49.446;8.754;2024-02-15T00:44:11;14.70;73.80
37910;DHT22;23741;49.446;8.754;2024-02-15T00:46:13;14.70;73.80
37910;DHT22;23741;49.446;8.754;2024-02-15T00:48:15;14.70;73.90
37910;DHT22;23741;49.446;8.754;2024-02-15T00:50:17;14.70;73.90
37910;DHT22;23741;49.446;8.754;2024-02-15T00:52:19;14.70;73.80
37910;DHT22;23741;49.446;8.754;2024-02-15T00:54:20;14.70;73.90
37910;DHT22;23741;49.446;8.754;2024-02-15T00:56:24;14.70;73.90
37910;DHT22;23741;49.446;8.754;2024-02-15T00:58:26;14.70;73.80
37910;DHT22;23741;49.446;8.754;2024-02-15T01:00:28;14.70;73.80
37910;DHT22;23741;49.446;8.754;2024-02-15T01:02:30;14.70;73.80
37910;DHT22;23741;49.446;8.754;2024-02-15T01:04:32;14.70;73.90
37910;DHT22;23741;49.446;8.754;2024-02-15T01:06:34;14.70;73.90
37910;DHT22;23741;49.446;8.754;2024-02-15T01:08:36;14.70;73.90
37910;DHT22;23741;49.446;8.754;2024-02-15T01:10:38;14.70;73.90
37910;DHT22;23741;49.446;8.754;2024-02-15T01:12:40;14.70;73.80
37910;DHT22;23741;49.446;8.754;2024-02-15T01:14:42;14.70;73.70
37910;DHT22;23741;49.446;8.754;2024-02-15T01:16:45;14.70;73.60
37910;DHT22;23741;49.446;8.754;2024-02-15T01:18:48;14.70;73.40
37910;DHT22;23741;49.446;8.754;2024-02-15T01:20:50;14.70;73.50
37910;DHT22;23741;49.446;8.754;2024-02-15T01:22:54;14.60;73.40
37910;DHT22;23741;49.446;8.754;2024-02-15T01:24:55;14.70;73.50
37910;DHT22;23741;49.446;8.754;2024-02-15T01:26:58;14.60;73.50
37910;DHT22;23741;49.446;8.754;2024-02-15T01:29:00;14.60;73.50
37910;DHT22;23741;49.446;8.754;2024-02-15T01:31:02;14.60;73.40
37910;DHT22;23741;49.446;8.754;2024-02-15T01:33:04;14.60;73.40
37910;DHT22;23741;49.446;8.754;2024-02-15T01:35:06;14.60;73.50
37910;DHT22;23741;49.446;8.754;2024-02-15T01:37:09;14.60;73.50
37910;DHT22;23741;49.446;8.754;2024-02-15T01:39:11;14.60;73.40
37910;DHT22;23741;49.446;8.754;2024-02-15T01:41:13;14.60;73.30
37910;DHT22;23741;49.446;8.754;2024-02-15T01:43:15;14.50;73.30
37910;DHT22;23741;49.446;8.754;2024-02-15T01:45:17;14.50;73.40
37910;DHT22;23741;49.446;8.754;2024-02-15T01:47:19;14.50;73.30
37910;DHT22;23741;49.446;8.754;2024-02-15T01:49:21;14.50;73.30
37910;DHT22;23741;49.446;8.754;2024-02-15T01:51:24;14.50;73.20
37910;DHT22;23741;49.446;8.754;2024-02-15T01:53:26;14.50;73.30
37910;DHT22;23741;49.446;8.754;2024-02-15T01:55:30;14.50;73.40
37910;DHT22;23741;49.446;8.754;2024-02-15T01:57:31;14.50;73.40
37910;DHT22;23741;49.446;8.754;2024-02-15T01:59:34;14.50;73.40
37910;DHT22;23741;49.446;8.754;2024-02-15T02:01:36;14.50;73.50
37910;DHT22;23741;49.446;8.754;2024-02-15T02:03:38;14.50;73.40
37910;DHT22;23741;49.446;8.754;2024-02-15T02:05:40;14.50;73.40
37910;DHT22;23741;49.446;8.754;2024-02-15T02:07:42;14.50;73.50
37910;DHT22;23741;49.446;8.754;2024-02-15T02:09:45;14.50;73.50
37910;DHT22;23741;49.446;8.754;2024-02-15T02:11:47;14.50;73.50
37910;DHT22;23741;49.446;8.754;2024-02-15T02:13:50;14.50;73.50
37910;DHT22;23741;49.446;8.754;2024-02-15T02:15:53;14.50;73.50
37910;DHT22;23741;49.446;8.754;2024-02-15T02:17:55;14.50;73.50
37910;DHT22;23741;49.446;8.754;2024-02-15T02:19:57;14.50;73.50
37910;DHT22;23741;49.446;8.754;2024-02-15T02:21:59;14.50;73.70
37910;DHT22;23741;49.446;8.754;2024-02-15T02:24:04;14.50;73.60
37910;DHT22;23741;49.446;8.754;2024-02-15T02:26:10;14.40;73.50
37910;DHT22;23741;49.446;8.754;2024-02-15T02:28:12;14.50;73.50
37910;DHT22;23741;49.446;8.754;2024-02-15T02:30:15;14.50;73.70
37910;DHT22;23741;49.446;8.754;2024-02-15T02:32:19;14.50;73.50
37910;DHT22;23741;49.446;8.754;2024-02-15T02:34:20;14.50;73.70
37910;DHT22;23741;49.446;8.754;2024-02-15T02:36:23;14.50;73.70
37910;DHT22;23741;49.446;8.754;2024-02-15T02:38:28;14.50;73.60
37910;DHT22;23741;49.446;8.754;2024-02-15T02:40:29;14.50;73.60
37910;DHT22;23741;49.446;8.754;2024-02-15T02:42:31;14.50;73.50
37910;DHT22;23741;49.446;8.754;2024-02-15T02:44:33;14.50;73.70
37910;DHT22;23741;49.446;8.754;2024-02-15T02:46:35;14.50;73.50
37910;DHT22;23741;49.446;8.754;2024-02-15T02:48:37;14.50;73.50
37910;DHT22;23741;49.446;8.754;2024-02-15T02:50:39;14.50;73.50
37910;DHT22;23741;49.446;8.754;2024-02-15T02:52:41;14.50;73.50
37910;DHT22;23741;49.446;8.754;2024-02-15T02:54:43;14.50;73.40
37910;DHT22;23741;49.446;8.754;2024-02-15T02:56:44;14.50;73.40
37910;DHT22;23741;49.446;8.754;2024-02-15T02:58:46;14.50;73.40
37910;DHT22;23741;49.446;8.754;2024-02-15T03:00:48;14.40;73.30
37910;DHT22;23741;49.446;8.754;2024-02-15T03:02:51;14.50;73.50
37910;DHT22;23741;49.446;8.754;2024-02-15T03:04:52;14.50;73.50
37910;DHT22;23741;49.446;8.754;2024-02-15T03:06:55;14.50;73.50
37910;DHT22;23741;49.446;8.754;2024-02-15T03:08:59;14.40;73.60
37910;DHT22;23741;49.446;8.754;2024-02-15T03:11:00;14.50;73.60
37910;DHT22;23741;49.446;8.754;2024-02-15T03:13:02;14.40;73.40
37910;DHT22;23741;49.446;8.754;2024-02-15T03:15:06;14.40;73.40
37910;DHT22;23741;49.446;8.754;2024-02-15T03:17:14;14.50;73.50
37910;DHT22;23741;49.446;8.754;2024-02-15T03:19:16;14.50;73.70
37910;DHT22;23741;49.446;8.754;2024-02-15T03:21:18;14.40;73.60
37910;DHT22;23741;49.446;8.754;2024-02-15T03:23:22;14.50;73.70
37910;DHT22;23741;49.446;8.754;2024-02-15T03:25:24;14.50;73.70
37910;DHT22;23741;49.446;8.754;2024-02-15T03:27:26;14.40;73.80
37910;DHT22;23741;49.446;8.754;2024-02-15T03:29:28;14.50;73.70
37910;DHT22;23741;49.446;8.754;2024-02-15T03:31:31;14.40;73.70
37910;DHT22;23741;49.446;8.754;2024-02-15T03:33:33;14.50;73.70
37910;DHT22;23741;49.446;8.754;2024-02-15T03:35:36;14.50;73.60
37910;DHT22;23741;49.446;8.754;2024-02-15T03:37:40;14.50;73.70
37910;DHT22;23741;49.446;8.754;2024-02-15T03:39:42;14.50;73.70
37910;DHT22;23741;49.446;8.754;2024-02-15T03:41:44;14.40;73.70
37910;DHT22;23741;49.446;8.754;2024-02-15T03:43:47;14.40;73.60
37910;DHT22;23741;49.446;8.754;2024-02-15T03:45:49;14.40;73.60
37910;DHT22;23741;49.446;8.754;2024-02-15T03:47:51;14.40;73.50
37910;DHT22;23741;49.446;8.754;2024-02-15T03:49:53;14.40;73.40
37910;DHT22;23741;49.446;8.754;2024-02-15T03:51:55;14.40;73.50
37910;DHT22;23741;49.446;8.754;2024-02-15T03:53:57;14.40;73.70
37910;DHT22;23741;49.446;8.754;2024-02-15T03:55:59;14.40;73.90
37910;DHT22;23741;49.446;8.754;2024-02-15T03:58:02;14.40;73.80
37910;DHT22;23741;49.446;8.754;2024-02-15T04:00:04;14.40;73.70
37910;DHT22;23741;49.446;8.754;2024-02-15T04:02:12;14.40;73.80
37910;DHT22;23741;49.446;8.754;2024-02-15T04:04:16;14.40;73.70
37910;DHT22;23741;49.446;8.754;2024-02-15T04:06:18;14.40;73.80
37910;DHT22;23741;49.446;8.754;2024-02-15T04:08:20;14.40;73.90
37910;DHT22;23741;49.446;8.754;2024-02-15T04:10:21;14.40;73.80
37910;DHT22;23741;49.446;8.754;2024-02-15T04:12:23;14.40;73.70
37910;DHT22;23741;49.446;8.754;2024-02-15T04:14:25;14.40;73.70
37910;DHT22;23741;49.446;8.754;2024-02-15T04:16:27;14.50;73.70
37910;DHT22;23741;49.446;8.754;2024-02-15T04:18:30;14.40;73.60
37910;DHT22;23741;49.446;8.754;2024-02-15T04:20:34;14.40;73.50
37910;DHT22;23741;49.446;8.754;2024-02-15T04:22:36;14.40;73.50
37910;DHT22;23741;49.446;8.754;2024-02-15T04:24:44;14.40;73.70
37910;DHT22;23741;49.446;8.754;2024-02-15T04:26:47;14.40;73.70
37910;DHT22;23741;49.446;8.754;2024-02-15T04:28:50;14.40;73.70
37910;DHT22;23741;49.446;8.754;2024-02-15T04:30:54;14.50;73.90
37910;DHT22;23741;49.446;8.754;2024-02-15T04:32:56;14.40;73.90
37910;DHT22;23741;49.446;8.754;2024-02-15T04:34:59;14.40;73.80
37910;DHT22;23741;49.446;8.754;2024-02-15T04:37:02;14.40;73.80
37910;DHT22;23741;49.446;8.754;2024-02-15T04:39:08;14.40;73.80
37910;DHT22;23741;49.446;8.754;2024-02-15T04:41:11;14.40;73.70
37910;DHT22;23741;49.446;8.754;2024-02-15T04:43:13;14.40;73.70
37910;DHT22;23741;49.446;8.754;2024-02-15T04:45:17;14.40;73.70
37910;DHT22;23741;49.446;8.754;2024-02-15T04:47:20;14.40;73.70
37910;DHT22;23741;49.446;8.754;2024-02-15T04:49:22;14.40;73.70
37910;DHT22;23741;49.446;8.754;2024-02-15T04:51:24;14.40;73.80
37910;DHT22;23741;49.446;8.754;2024-02-15T04:53:26;14.40;73.80
37910;DHT22;23741;49.446;8.754;2024-02-15T04:55:31;14.40;73.80
37910;DHT22;23741;49.446;8.754;2024-02-15T04:57:33;14.40;73.80
37910;DHT22;23741;49.446;8.754;2024-02-15T04:59:38;14.40;73.70
37910;DHT22;23741;49.446;8.754;2024-02-15T05:01:40;14.40;73.70
37910;DHT22;23741;49.446;8.754;2024-02-15T05:03:44;14.40;73.80
37910;DHT22;23741;49.446;8.754;2024-02-15T05:05:46;14.40;73.90
37910;DHT22;23741;49.446;8.754;2024-02-15T05:07:48;14.40;73.90
37910;DHT22;23741;49.446;8.754;2024-02-15T05:09:51;14.40;73.80
37910;DHT22;23741;49.446;8.754;2024-02-15T05:11:53;14.40;73.80
37910;DHT22;23741;49.446;8.754;2024-02-15T05:13:56;14.50;74.70
37910;DHT22;23741;49.446;8.754;2024-02-15T05:15:59;14.40;73.90
37910;DHT22;23741;49.446;8.754;2024-02-15T05:18:01;14.40;73.90
37910;DHT22;23741;49.446;8.754;2024-02-15T05:20:04;14.40;73.80
37910;DHT22;23741;49.446;8.754;2024-02-15T05:22:11;14.40;73.70
37910;DHT22;23741;49.446;8.754;2024-02-15T05:24:14;14.40;73.60
37910;DHT22;23741;49.446;8.754;2024-02-15T05:26:16;14.40;73.50
37910;DHT22;23741;49.446;8.754;2024-02-15T05:28:22;14.40;73.50
37910;DHT22;23741;49.446;8.754;2024-02-15T05:30:28;14.40;73.70
37910;DHT22;23741;49.446;8.754;2024-02-15T05:32:31;14.40;73.80
37910;DHT22;23741;49.446;8.754;2024-02-15T05:34:33;14.40;73.70
37910;DHT22;23741;49.446;8.754;2024-02-15T05:36:35;14.40;73.70
37910;DHT22;23741;49.446;8.754;2024-02-15T05:38:37;14.40;73.70
37910;DHT22;23741;49.446;8.754;2024-02-15T05:40:39;14.40;73.70
37910;DHT22;23741;49.446;8.754;2024-02-15T05:42:43;14.40;73.70
37910;DHT22;23741;49.446;8.754;2024-02-15T05:44:48;14.40;73.70
37910;DHT22;23741;49.446;8.754;2024-02-15T05:46:51;14.40;73.80
37910;DHT22;23741;49.446;8.754;2024-02-15T05:48:53;14.40;73.90
37910;DHT22;23741;49.446;8.754;2024-02-15T05:50:56;14.40;73.80
37910;DHT22;23741;49.446;8.754;2024-02-15T05:52:58;14.40;73.80
37910;DHT22;23741;49.446;8.754;2024-02-15T05:55:00;14.40;73.80
37910;DHT22;23741;49.446;8.754;2024-02-15T05:57:02;14.40;73.70
37910;DHT22;23741;49.446;8.754;2024-02-15T05:59:06;14.40;73.80
37910;DHT22;23741;49.446;8.754;2024-02-15T06:01:12;14.40;73.90
37910;DHT22;23741;49.446;8.754;2024-02-15T06:03:15;14.40;73.80
37910;DHT22;23741;49.446;8.754;2024-02-15T06:05:17;14.40;73.80
37910;DHT22;23741;49.446;8.754;2024-02-15T06:07:19;14.40;73.80
37910;DHT22;23741;49.446;8.754;2024-02-15T06:09:22;14.40;73.70
37910;DHT22;23741;49.446;8.754;2024-02-15T06:11:28;14.40;73.90
37910;DHT22;23741;49.446;8.754;2024-02-15T06:13:31;14.40;73.80
37910;DHT22;23741;49.446;8.754;2024-02-15T06:15:32;14.40;73.80
37910;DHT22;23741;49.446;8.754;2024-02-15T06:17:37;14.40;73.90
37910;DHT22;23741;49.446;8.754;2024-02-15T06:19:39;14.40;73.90
37910;DHT22;23741;49.446;8.754;2024-02-15T06:21:41;14.40;73.80
37910;DHT22;23741;49.446;8.754;2024-02-15T06:23:43;14.40;73.80
37910;DHT22;23741;49.446;8.754;2024-02-15T06:25:50;14.40;73.80
37910;DHT22;23741;49.446;8.754;2024-02-15T06:27:52;14.40;73.70
37910;DHT22;23741;49.446;8.754;2024-02-15T06:30:00;14.40;73.80
37910;DHT22;23741;49.446;8.754;2024-02-15T06:32:20;14.40;73.80
37910;DHT22;23741;49.446;8.754;2024-02-15T06:34:42;14.40;73.90
37910;DHT22;23741;49.446;8.754;2024-02-15T06:37:02;14.40;73.90
37910;DHT22;23741;49.446;8.754;2024-02-15T06:39:23;14.40;74.00
37910;DHT22;23741;49.446;8.754;2024-02-15T06:41:42;14.40;74.00
37910;DHT22;23741;49.446;8.754;2024-02-15T06:43:44;14.40;73.90
37910;DHT22;23741;49.446;8.754;2024-02-15T06:45:46;14.40;73.90
37910;DHT22;23741;49.446;8.754;2024-02-15T06:47:48;14.40;74.00
37910;DHT22;23741;49.446;8.754;2024-02-15T06:49:51;14.40;74.00
37910;DHT22;23741;49.446;8.754;2024-02-15T06:51:55;14.40;74.10
37910;DHT22;23741;49.446;8.754;2024-02-15T06:53:57;14.40;74.00
37910;DHT22;23741;49.446;8.754;2024-02-15T06:55:59;14.40;74.10
37910;DHT22;23741;49.446;8.754;2024-02-15T06:58:01;14.40;74.00
37910;DHT22;23741;49.446;8.754;2024-02-15T07:00:03;14.40;74.00
37910;DHT22;23741;49.446;8.754;2024-02-15T07:02:08;14.40;73.90
37910;DHT22;23741;49.446;8.754;2024-02-15T07:04:10;14.40;73.90
37910;DHT22;23741;49.446;8.754;2024-02-15T07:06:12;14.40;74.00
37910;DHT22;23741;49.446;8.754;2024-02-15T07:08:15;14.40;74.00
37910;DHT22;23741;49.446;8.754;2024-02-15T07:10:16;14.40;74.10
37910;DHT22;23741;49.446;8.754;2024-02-15T07:12:18;14.40;74.00
37910;DHT22;23741;49.446;8.754;2024-02-15T07:14:22;14.40;74.00
37910;DHT22;23741;49.446;8.754;2024-02-15T07:16:24;14.40;74.00
37910;DHT22;23741;49.446;8.754;2024-02-15T07:18:26;14.40;74.00
37910;DHT22;23741;49.446;8.754;2024-02-15T07:20:30;14.40;74.10
37910;DHT22;23741;49.446;8.754;2024-02-15T07:22:32;14.40;74.10
37910;DHT22;23741;49.446;8.754;2024-02-15T07:24:34;14.40;74.00
37910;DHT22;23741;49.446;8.754;2024-02-15T07:26:37;14.50;74.10
37910;DHT22;23741;49.446;8.754;2024-02-15T07:28:39;14.50;74.20
37910;DHT22;23741;49.446;8.754;2024-02-15T07:30:40;14.50;74.20
37910;DHT22;23741;49.446;8.754;2024-02-15T07:32:42;14.50;74.20
37910;DHT22;23741;49.446;8.754;2024-02-15T07:34:44;14.50;74.20
37910;DHT22;23741;49.446;8.754;2024-02-15T07:36:47;14.50;74.40
37910;DHT22;23741;49.446;8.754;2024-02-15T07:38:49;14.50;74.30
37910;DHT22;23741;49.446;8.754;2024-02-15T07:40:51;14.50;74.40
37910;DHT22;23741;49.446;8.754;2024-02-15T07:42:53;14.50;74.50
37910;DHT22;23741;49.446;8.754;2024-02-15T07:44:54;14.50;74.50
37910;DHT22;23741;49.446;8.754;2024-02-15T07:46:56;14.50;74.50
37910;DHT22;23741;49.446;8.754;2024-02-15T07:48:58;14.60;74.30
37910;DHT22;23741;49.446;8.754;2024-02-15T07:51:01;14.60;74.40
37910;DHT22;23741;49.446;8.754;2024-02-15T07:53:04;14.60;75.30
37910;DHT22;23741;49.446;8.754;2024-02-15T07:55:08;14.60;74.40
37910;DHT22;23741;49.446;8.754;2024-02-15T07:57:10;14.60;74.50
37910;DHT22;23741;49.446;8.754;2024-02-15T07:59:13;14.60;74.40
37910;DHT22;23741;49.446;8.754;2024-02-15T08:01:15;14.60;74.40
37910;DHT22;23741;49.446;8.754;2024-02-15T08:03:17;14.60;74.40
37910;DHT22;23741;49.446;8.754;2024-02-15T08:05:19;14.60;74.50
37910;DHT22;23741;49.446;8.754;2024-02-15T08:07:22;14.70;74.70
37910;DHT22;23741;49.446;8.754;2024-02-15T08:09:24;14.70;74.70
37910;DHT22;23741;49.446;8.754;2024-02-15T08:11:26;14.70;74.60
37910;DHT22;23741;49.446;8.754;2024-02-15T08:13:28;14.70;74.70
37910;DHT22;23741;49.446;8.754;2024-02-15T08:15:31;14.70;74.70
37910;DHT22;23741;49.446;8.754;2024-02-15T08:17:34;14.80;74.70
37910;DHT22;23741;49.446;8.754;2024-02-15T08:19:39;14.80;74.70
37910;DHT22;23741;49.446;8.754;2024-02-15T08:21:47;14.80;74.60
37910;DHT22;23741;49.446;8.754;2024-02-15T08:23:52;14.80;74.80
37910;DHT22;23741;49.446;8.754;2024-02-15T08:25:54;14.80;74.70
37910;DHT22;23741;49.446;8.754;2024-02-15T08:27:56;14.80;74.50
37910;DHT22;23741;49.446;8.754;2024-02-15T08:29:58;14.90;74.70
37910;DHT22;23741;49.446;8.754;2024-02-15T08:32:00;14.90;74.70
37910;DHT22;23741;49.446;8.754;2024-02-15T08:34:02;14.90;74.60
37910;DHT22;23741;49.446;8.754;2024-02-15T08:36:04;14.90;74.70
37910;DHT22;23741;49.446;8.754;2024-02-15T08:38:07;14.90;74.60
37910;DHT22;23741;49.446;8.754;2024-02-15T08:40:09;14.90;74.50
37910;DHT22;23741;49.446;8.754;2024-02-15T08:42:15;14.90;74.50
37910;DHT22;23741;49.446;8.754;2024-02-15T08:44:17;15.00;74.50
37910;DHT22;23741;49.446;8.754;2024-02-15T08:46:20;15.00;74.50
37910;DHT22;23741;49.446;8.754;2024-02-15T08:48:23;15.00;74.50
37910;DHT22;23741;49.446;8.754;2024-02-15T08:50:27;15.00;74.40
37910;DHT22;23741;49.446;8.754;2024-02-15T08:52:29;15.00;74.40
37910;DHT22;23741;49.446;8.754;2024-02-15T08:54:31;15.00;74.40
37910;DHT22;23741;49.446;8.754;2024-02-15T08:56:37;15.00;74.30
37910;DHT22;23741;49.446;8.754;2024-02-15T08:58:39;15.10;74.40
37910;DHT22;23741;49.446;8.754;2024-02-15T09:00:41;15.10;74.40
37910;DHT22;23741;49.446;8.754;2024-02-15T09:02:46;15.10;74.50
37910;DHT22;23741;49.446;8.754;2024-02-15T09:04:48;15.10;74.40
37910;DHT22;23741;49.446;8.754;2024-02-15T09:06:50;15.10;74.50
37910;DHT22;23741;49.446;8.754;2024-02-15T09:08:52;15.10;74.60
37910;DHT22;23741;49.446;8.754;2024-02-15T09:10:54;15.20;74.70
37910;DHT22;23741;49.446;8.754;2024-02-15T09:12:56;15.20;74.60
37910;DHT22;23741;49.446;8.754;2024-02-15T09:14:58;15.20;74.50
37910;DHT22;23741;49.446;8.754;2024-02-15T09:17:00;15.20;74.50
37910;DHT22;23741;49.446;8.754;2024-02-15T09:19:05;15.30;74.60
37910;DHT22;23741;49.446;8.754;2024-02-15T09:21:07;15.30;74.60
37910;DHT22;23741;49.446;8.754;2024-02-15T09:23:09;15.30;74.60
37910;DHT22;23741;49.446;8.754;2024-02-15T09:25:13;15.30;74.60
37910;DHT22;23741;49.446;8.754;2024-02-15T09:27:15;15.40;74.60
37910;DHT22;23741;49.446;8.754;2024-02-15T09:29:17;15.40;74.50
37910;DHT22;23741;49.446;8.754;2024-02-15T09:31:19;15.40;74.40
37910;DHT22;23741;49.446;8.754;2024-02-15T09:33:21;15.50;74.40
37910;DHT22;23741;49.446;8.754;2024-02-15T09:35:23;15.50;74.30
37910;DHT22;23741;49.446;8.754;2024-02-15T09:37:25;15.50;74.20
37910;DHT22;23741;49.446;8.754;2024-02-15T09:39:29;15.60;74.00
37910;DHT22;23741;49.446;8.754;2024-02-15T09:41:31;15.60;73.90
37910;DHT22;23741;49.446;8.754;2024-02-15T09:43:34;15.70;74.00
37910;DHT22;23741;49.446;8.754;2024-02-15T09:45:36;15.70;73.80
37910;DHT22;23741;49.446;8.754;2024-02-15T09:47:39;15.70;73.60
37910;DHT22;23741;49.446;8.754;2024-02-15T09:49:44;15.80;73.60
37910;DHT22;23741;49.446;8.754;2024-02-15T09:51:46;15.80;73.40
37910;DHT22;23741;49.446;8.754;2024-02-15T09:53:49;15.80;73.30
37910;DHT22;23741;49.446;8.754;2024-02-15T09:55:51;15.90;73.20
37910;DHT22;23741;49.446;8.754;2024-02-15T09:57:55;15.90;73.30
37910;DHT22;23741;49.446;8.754;2024-02-15T09:59:57;15.90;73.20
37910;DHT22;23741;49.446;8.754;2024-02-15T10:02:00;16.00;73.30
37910;DHT22;23741;49.446;8.754;2024-02-15T10:04:02;16.00;73.20
37910;DHT22;23741;49.446;8.754;2024-02-15T10:06:08;16.10;73.40
37910;DHT22;23741;49.446;8.754;2024-02-15T10:08:10;16.10;73.20
37910;DHT22;23741;49.446;8.754;2024-02-15T10:10:16;16.10;73.20
37910;DHT22;23741;49.446;8.754;2024-02-15T10:12:19;16.20;73.10
37910;DHT22;23741;49.446;8.754;2024-02-15T10:14:25;16.20;73.10
37910;DHT22;23741;49.446;8.754;2024-02-15T10:16:27;16.30;73.10
37910;DHT22;23741;49.446;8.754;2024-02-15T10:18:30;16.40;73.20
37910;DHT22;23741;49.446;8.754;2024-02-15T10:20:32;16.40;73.20
37910;DHT22;23741;49.446;8.754;2024-02-15T10:22:36;16.50;73.20
37910;DHT22;23741;49.446;8.754;2024-02-15T10:24:38;16.50;73.10
37910;DHT22;23741;49.446;8.754;2024-02-15T10:26:41;16.60;73.10
37910;DHT22;23741;49.446;8.754;2024-02-15T10:28:43;16.60;73.00
37910;DHT22;23741;49.446;8.754;2024-02-15T10:30:45;16.70;73.00
37910;DHT22;23741;49.446;8.754;2024-02-15T10:32:49;16.80;72.90
37910;DHT22;23741;49.446;8.754;2024-02-15T10:34:53;16.80;72.80
37910;DHT22;23741;49.446;8.754;2024-02-15T10:36:55;16.80;72.70
37910;DHT22;23741;49.446;8.754;2024-02-15T10:39:11;16.90;72.60
37910;DHT22;23741;49.446;8.754;2024-02-15T10:41:19;17.00;72.50
37910;DHT22;23741;49.446;8.754;2024-02-15T10:43:22;17.00;72.40
37910;DHT22;23741;49.446;8.754;2024-02-15T10:45:24;17.00;72.00
37910;DHT22;23741;49.446;8.754;2024-02-15T10:47:27;17.10;72.10
37910;DHT22;23741;49.446;8.754;2024-02-15T10:49:29;17.10;71.90
37910;DHT22;23741;49.446;8.754;2024-02-15T10:51:32;17.20;71.70
37910;DHT22;23741;49.446;8.754;2024-02-15T10:53:35;17.20;71.50
37910;DHT22;23741;49.446;8.754;2024-02-15T10:55:42;17.20;71.50
37910;DHT22;23741;49.446;8.754;2024-02-15T10:57:48;17.20;71.30
37910;DHT22;23741;49.446;8.754;2024-02-15T10:59:54;17.30;71.10
37910;DHT22;23741;49.446;8.754;2024-02-15T11:01:59;17.40;71.20
37910;DHT22;23741;49.446;8.754;2024-02-15T11:04:03;17.40;71.10
37910;DHT22;23741;49.446;8.754;2024-02-15T11:06:07;17.40;70.90
37910;DHT22;23741;49.446;8.754;2024-02-15T11:08:11;17.40;70.70
37910;DHT22;23741;49.446;8.754;2024-02-15T11:10:13;17.50;70.40
37910;DHT22;23741;49.446;8.754;2024-02-15T11:12:18;17.50;70.30
37910;DHT22;23741;49.446;8.754;2024-02-15T11:14:31;17.50;70.50
37910;DHT22;23741;49.446;8.754;2024-02-15T11:16:39;17.50;70.20
37910;DHT22;23741;49.446;8.754;2024-02-15T11:18:47;17.60;70.10
37910;DHT22;23741;49.446;8.754;2024-02-15T11:20:59;17.60;70.30
37910;DHT22;23741;49.446;8.754;2024-02-15T11:23:02;17.60;70.50
37910;DHT22;23741;49.446;8.754;2024-02-15T11:25:05;17.70;69.60
37910;DHT22;23741;49.446;8.754;2024-02-15T11:27:13;17.70;69.60
37910;DHT22;23741;49.446;8.754;2024-02-15T11:31:54;17.80;70.10
37910;DHT22;23741;49.446;8.754;2024-02-15T11:33:57;17.90;70.10
37910;DHT22;23741;49.446;8.754;2024-02-15T11:36:05;17.90;70.70
37910;DHT22;23741;49.446;8.754;2024-02-15T11:38:07;18.00;69.80
37910;DHT22;23741;49.446;8.754;2024-02-15T11:40:15;18.00;70.10
37910;DHT22;23741;49.446;8.754;2024-02-15T11:42:25;18.00;69.90
37910;DHT22;23741;49.446;8.754;2024-02-15T11:44:27;18.10;70.00
37910;DHT22;23741;49.446;8.754;2024-02-15T11:46:29;18.10;68.30
37910;DHT22;23741;49.446;8.754;2024-02-15T11:48:35;18.20;68.70
37910;DHT22;23741;49.446;8.754;2024-02-15T11:50:38;18.20;68.60
37910;DHT22;23741;49.446;8.754;2024-02-15T11:52:41;18.30;68.90
37910;DHT22;23741;49.446;8.754;2024-02-15T11:54:44;18.30;69.00
37910;DHT22;23741;49.446;8.754;2024-02-15T11:59:03;18.40;68.60
37910;DHT22;23741;49.446;8.754;2024-02-15T12:01:08;18.40;69.10
37910;DHT22;23741;49.446;8.754;2024-02-15T12:03:29;18.50;69.20
37910;DHT22;23741;49.446;8.754;2024-02-15T12:06:04;18.50;68.50
37910;DHT22;23741;49.446;8.754;2024-02-15T12:08:25;18.60;68.40
37910;DHT22;23741;49.446;8.754;2024-02-15T12:10:56;18.60;68.40
37910;DHT22;23741;49.446;8.754;2024-02-15T12:13:19;18.60;68.50
37910;DHT22;23741;49.446;8.754;2024-02-15T12:15:39;18.70;68.40
37910;DHT22;23741;49.446;8.754;2024-02-15T12:18:16;18.70;68.40
37910;DHT22;23741;49.446;8.754;2024-02-15T12:20:37;18.80;68.80
37910;DHT22;23741;49.446;8.754;2024-02-15T12:22:40;18.80;68.10
37910;DHT22;23741;49.446;8.754;2024-02-15T12:24:43;18.80;68.20
37910;DHT22;23741;49.446;8.754;2024-02-15T12:26:45;18.90;68.30
37910;DHT22;23741;49.446;8.754;2024-02-15T12:28:51;18.90;68.90
37910;DHT22;23741;49.446;8.754;2024-02-15T12:30:57;18.90;68.30
37910;DHT22;23741;49.446;8.754;2024-02-15T12:33:08;19.00;68.30
37910;DHT22;23741;49.446;8.754;2024-02-15T12:35:11;19.00;68.10
37910;DHT22;23741;49.446;8.754;2024-02-15T12:37:21;19.00;68.00
37910;DHT22;23741;49.446;8.754;2024-02-15T12:39:25;19.00;67.90
37910;DHT22;23741;49.446;8.754;2024-02-15T12:41:27;19.00;68.30
37910;DHT22;23741;49.446;8.754;2024-02-15T12:43:29;19.00;67.90
37910;DHT22;23741;49.446;8.754;2024-02-15T12:45:31;19.00;67.70
37910;DHT22;23741;49.446;8.754;2024-02-15T12:47:34;19.00;67.50
37910;DHT22;23741;49.446;8.754;2024-02-15T12:49:36;19.10;67.70
37910;DHT22;23741;49.446;8.754;2024-02-15T12:51:38;19.10;67.60
37910;DHT22;23741;49.446;8.754;2024-02-15T12:53:40;19.10;67.50
37910;DHT22;23741;49.446;8.754;2024-02-15T12:55:43;19.10;67.60
37910;DHT22;23741;49.446;8.754;2024-02-15T12:57:47;19.10;67.30
37910;DHT22;23741;49.446;8.754;2024-02-15T12:59:51;19.10;67.40
37910;DHT22;23741;49.446;8.754;2024-02-15T13:01:53;19.10;66.90
37910;DHT22;23741;49.446;8.754;2024-02-15T13:03:56;19.10;66.90
37910;DHT22;23741;49.446;8.754;2024-02-15T13:05:58;19.10;66.90